Climatologie pour Saint-Brevin les Pins
Jour • Résumé pour mai 30, 2017 Système :  Métrique    Anglais   Mixte
« - 1 jour
+ 1 jour »
Jour Semaine Mois Année Personnalisé
  Maximum : Minimum : Moyenne :
Température sous abri : 20.8 °C 12.9 °C 16.6 °C
Point de rosée : 17.0 °C 12.5 °C 14.5 °C
Humidité : 99 % 69 % 88 %
Vitesse du vent : 20.9 km/h 0.0 km/h 5.7 km/h
Rafale : 25.7 km/h - -
Direction :- - WNW
Pression : 1021.6 hPa 1016.1 hPa -
Précipitations : 0.0 mm    
Historical Graphs
 
 
Tableau de données pour mai 30, 2017
Heure Tempé Pt rosée Pression Vent Vitesse Rafale Humidité Taux pluie (/hr) Soleil
00:00 14.6 °C 14.0 °C 1016.5 hPa WNW 4.8 km/h 14.5 km/h 96 % 0.0 mm 0 W/m2
00:10 14.6 °C 13.9 °C 1016.1 hPa NW 4.8 km/h 11.3 km/h 96 % 0.0 mm 0 W/m2
00:15 14.5 °C 13.9 °C 1016.5 hPa WNW 6.4 km/h 12.9 km/h 96 % 0.0 mm 0 W/m2
00:20 14.5 °C 13.9 °C 1016.5 hPa West 3.2 km/h 12.9 km/h 96 % 0.0 mm 0 W/m2
00:25 14.6 °C 14.0 °C 1016.5 hPa NW 8.0 km/h 14.5 km/h 96 % 0.0 mm 0 W/m2
00:30 14.6 °C 13.9 °C 1016.5 hPa WNW 6.4 km/h 14.5 km/h 96 % 0.0 mm 0 W/m2
00:35 14.6 °C 13.9 °C 1016.5 hPa WNW 8.0 km/h 9.7 km/h 96 % 0.0 mm 0 W/m2
00:40 14.6 °C 13.9 °C 1016.5 hPa WNW 3.2 km/h 9.7 km/h 96 % 0.0 mm 0 W/m2
00:50 14.6 °C 14.0 °C 1016.5 hPa WNW 12.9 km/h 16.1 km/h 96 % 0.0 mm 0 W/m2
00:55 14.7 °C 14.0 °C 1016.5 hPa WNW 3.2 km/h 16.1 km/h 96 % 0.0 mm 0 W/m2
01:00 14.7 °C 14.0 °C 1016.5 hPa WNW 8.0 km/h 16.1 km/h 96 % 0.0 mm 0 W/m2
01:05 14.7 °C 14.1 °C 1016.5 hPa West 4.8 km/h 19.3 km/h 96 % 0.0 mm 0 W/m2
01:10 14.7 °C 14.0 °C 1016.5 hPa NW 11.3 km/h 19.3 km/h 96 % 0.0 mm 0 W/m2
01:15 14.8 °C 14.1 °C 1016.5 hPa NW 4.8 km/h 17.7 km/h 96 % 0.0 mm 0 W/m2
01:20 14.7 °C 14.1 °C 1016.5 hPa WNW 4.8 km/h 17.7 km/h 96 % 0.0 mm 0 W/m2
01:25 14.7 °C 14.1 °C 1016.5 hPa WNW 8.0 km/h 14.5 km/h 96 % 0.0 mm 0 W/m2
01:30 14.7 °C 14.1 °C 1016.5 hPa WNW 3.2 km/h 14.5 km/h 96 % 0.0 mm 0 W/m2
01:35 14.7 °C 14.1 °C 1016.5 hPa WNW 9.7 km/h 14.5 km/h 96 % 0.0 mm 0 W/m2
01:40 14.7 °C 14.0 °C 1016.5 hPa WNW 3.2 km/h 12.9 km/h 96 % 0.0 mm 0 W/m2
01:45 14.7 °C 14.0 °C 1016.5 hPa WNW 6.4 km/h 12.9 km/h 96 % 0.0 mm 0 W/m2
01:50 14.7 °C 14.1 °C 1016.5 hPa WNW 6.4 km/h 16.1 km/h 96 % 0.0 mm 0 W/m2
01:55 14.7 °C 14.0 °C 1016.5 hPa NNW 8.0 km/h 16.1 km/h 96 % 0.0 mm 0 W/m2
02:00 14.7 °C 14.0 °C 1016.5 hPa NNW 9.7 km/h 16.1 km/h 96 % 0.0 mm 0 W/m2
02:05 14.7 °C 14.0 °C 1016.5 hPa WNW 8.0 km/h 16.1 km/h 96 % 0.0 mm 0 W/m2
02:10 14.6 °C 14.0 °C 1016.5 hPa WNW 6.4 km/h 11.3 km/h 96 % 0.0 mm 0 W/m2
02:15 14.6 °C 14.0 °C 1016.5 hPa WNW 3.2 km/h 12.9 km/h 96 % 0.0 mm 0 W/m2
02:20 14.6 °C 13.9 °C 1016.5 hPa WNW 3.2 km/h 12.9 km/h 96 % 0.0 mm 0 W/m2
02:25 14.4 °C 13.8 °C 1016.5 hPa NW 4.8 km/h 12.9 km/h 96 % 0.0 mm 0 W/m2
02:30 14.4 °C 14.0 °C 1016.5 hPa WNW 3.2 km/h 11.3 km/h 97 % 0.0 mm 0 W/m2
02:35 14.4 °C 13.8 °C 1016.5 hPa WNW 4.8 km/h 14.5 km/h 96 % 0.0 mm 0 W/m2
02:40 14.5 °C 14.0 °C 1016.5 hPa WNW 8.0 km/h 14.5 km/h 97 % 0.0 mm 0 W/m2
02:45 14.4 °C 14.0 °C 1016.5 hPa NW 9.7 km/h 14.5 km/h 97 % 0.0 mm 0 W/m2
02:50 14.4 °C 13.8 °C 1016.5 hPa WNW 4.8 km/h 14.5 km/h 96 % 0.0 mm 0 W/m2
02:55 14.4 °C 13.9 °C 1016.5 hPa WNW 11.3 km/h 11.3 km/h 97 % 0.0 mm 0 W/m2
03:00 14.4 °C 13.8 °C 1016.5 hPa WNW 4.8 km/h 11.3 km/h 96 % 0.0 mm 0 W/m2
03:05 14.3 °C 13.9 °C 1016.5 hPa North 6.4 km/h 11.3 km/h 97 % 0.0 mm 0 W/m2
03:10 14.4 °C 13.9 °C 1016.5 hPa WNW 3.2 km/h 11.3 km/h 97 % 0.0 mm 0 W/m2
03:15 14.4 °C 13.9 °C 1016.5 hPa NW 9.7 km/h 11.3 km/h 97 % 0.0 mm 0 W/m2
03:20 14.3 °C 13.7 °C 1016.5 hPa Calm   12.9 km/h 96 % 0.0 mm 0 W/m2
03:25 14.2 °C 13.6 °C 1016.5 hPa WNW 3.2 km/h 12.9 km/h 96 % 0.0 mm 0 W/m2
03:30 14.2 °C 13.7 °C 1016.5 hPa WNW 4.8 km/h 14.5 km/h 97 % 0.0 mm 0 W/m2
03:35 14.2 °C 13.7 °C 1016.5 hPa NNW 4.8 km/h 14.5 km/h 97 % 0.0 mm 0 W/m2
03:40 14.1 °C 13.6 °C 1016.5 hPa West 1.6 km/h 12.9 km/h 97 % 0.0 mm 0 W/m2
03:45 14.0 °C 13.5 °C 1016.5 hPa WNW 3.2 km/h 12.9 km/h 97 % 0.0 mm 0 W/m2
03:50 13.9 °C 13.5 °C 1016.5 hPa NW 1.6 km/h 9.7 km/h 97 % 0.0 mm 0 W/m2
03:55 13.9 °C 13.4 °C 1016.5 hPa Calm   9.7 km/h 97 % 0.0 mm 0 W/m2
04:00 13.8 °C 13.3 °C 1016.5 hPa NW 6.4 km/h 9.7 km/h 97 % 0.0 mm 0 W/m2
04:05 13.8 °C 13.3 °C 1016.1 hPa NW 3.2 km/h 9.7 km/h 97 % 0.0 mm 0 W/m2
04:10 13.8 °C 13.3 °C 1016.5 hPa NW 9.7 km/h 9.7 km/h 97 % 0.0 mm 0 W/m2
04:15 13.6 °C 13.1 °C 1016.5 hPa NNW 6.4 km/h 9.7 km/h 97 % 0.0 mm 0 W/m2
04:20 13.7 °C 13.2 °C 1016.5 hPa WNW 6.4 km/h 9.7 km/h 97 % 0.0 mm 0 W/m2
04:25 13.7 °C 13.2 °C 1016.5 hPa WNW 1.6 km/h 11.3 km/h 97 % 0.0 mm 0 W/m2
04:30 13.6 °C 13.1 °C 1016.5 hPa WNW 3.2 km/h 11.3 km/h 97 % 0.0 mm 0 W/m2
04:35 13.7 °C 13.2 °C 1016.5 hPa NW 1.6 km/h 6.4 km/h 97 % 0.0 mm 0 W/m2
04:40 13.6 °C 13.1 °C 1016.5 hPa NW 4.8 km/h 8.0 km/h 97 % 0.0 mm 0 W/m2
04:45 13.5 °C 13.0 °C 1016.5 hPa NW 3.2 km/h 8.0 km/h 97 % 0.0 mm 0 W/m2
04:50 13.5 °C 13.0 °C 1016.5 hPa NW 8.0 km/h 9.7 km/h 97 % 0.0 mm 0 W/m2
04:55 13.6 °C 13.3 °C 1016.5 hPa WNW 3.2 km/h 9.7 km/h 98 % 0.0 mm 0 W/m2
05:00 13.7 °C 13.4 °C 1016.5 hPa WNW 6.4 km/h 11.3 km/h 98 % 0.0 mm 0 W/m2
05:05 13.8 °C 13.5 °C 1016.5 hPa Calm   11.3 km/h 98 % 0.0 mm 0 W/m2
05:10 13.9 °C 13.6 °C 1016.5 hPa Calm   9.7 km/h 98 % 0.0 mm 0 W/m2
05:15 13.8 °C 13.3 °C 1016.5 hPa WNW 3.2 km/h 9.7 km/h 97 % 0.0 mm 0 W/m2
05:25 13.6 °C 13.1 °C 1016.5 hPa Calm   4.8 km/h 97 % 0.0 mm 0 W/m2
05:30 13.6 °C 13.1 °C 1016.5 hPa Calm   4.8 km/h 97 % 0.0 mm 0 W/m2
05:35 13.4 °C 13.0 °C 1016.8 hPa Calm   3.2 km/h 97 % 0.0 mm 0 W/m2
05:40 13.3 °C 13.0 °C 1016.8 hPa Calm   3.2 km/h 98 % 0.0 mm 0 W/m2
05:45 13.3 °C 12.8 °C 1016.8 hPa Calm   4.8 km/h 97 % 0.0 mm 0 W/m2
05:50 13.2 °C 12.9 °C 1016.5 hPa WNW 1.6 km/h 4.8 km/h 98 % 0.0 mm 0 W/m2
05:55 13.0 °C 12.7 °C 1016.8 hPa WNW 1.6 km/h 4.8 km/h 98 % 0.0 mm 0 W/m2
06:00 12.9 °C 12.6 °C 1016.8 hPa Calm   4.8 km/h 98 % 0.0 mm 0 W/m2
06:05 12.9 °C 12.6 °C 1016.8 hPa Calm   3.2 km/h 98 % 0.0 mm 0 W/m2
06:10 12.9 °C 12.6 °C 1016.8 hPa Calm   3.2 km/h 98 % 0.0 mm 0 W/m2
06:20 13.1 °C 12.7 °C 1016.8 hPa Calm   4.8 km/h 98 % 0.0 mm 0 W/m2
06:25 13.1 °C 12.8 °C 1016.8 hPa Calm   6.4 km/h 98 % 0.0 mm 5 W/m2
06:35 13.0 °C 12.7 °C 1016.8 hPa Calm   6.4 km/h 98 % 0.0 mm 9 W/m2
06:40 12.9 °C 12.6 °C 1016.8 hPa Calm   4.8 km/h 98 % 0.0 mm 12 W/m2
06:45 12.9 °C 12.6 °C 1017.2 hPa West 1.6 km/h 4.8 km/h 98 % 0.0 mm 14 W/m2
06:50 13.1 °C 12.8 °C 1017.2 hPa Calm   9.7 km/h 98 % 0.0 mm 18 W/m2
06:55 13.2 °C 12.9 °C 1017.2 hPa West 4.8 km/h 9.7 km/h 98 % 0.0 mm 19 W/m2
07:00 13.3 °C 13.0 °C 1017.2 hPa Calm   6.4 km/h 98 % 0.0 mm 21 W/m2
07:05 13.4 °C 13.1 °C 1017.2 hPa WNW 1.6 km/h 8.0 km/h 98 % 0.0 mm 23 W/m2
07:10 13.5 °C 13.2 °C 1017.2 hPa Calm   8.0 km/h 98 % 0.0 mm 26 W/m2
07:15 13.7 °C 13.4 °C 1017.5 hPa Calm   8.0 km/h 98 % 0.0 mm 39 W/m2
07:20 13.9 °C 13.6 °C 1017.5 hPa Calm   6.4 km/h 98 % 0.0 mm 44 W/m2
07:25 14.1 °C 13.9 °C 1017.5 hPa Calm   6.4 km/h 99 % 0.0 mm 37 W/m2
07:30 14.3 °C 14.0 °C 1017.5 hPa WNW 4.8 km/h 6.4 km/h 98 % 0.0 mm 30 W/m2
07:35 14.2 °C 13.9 °C 1017.5 hPa Calm   6.4 km/h 98 % 0.0 mm 39 W/m2
07:40 14.3 °C 14.0 °C 1017.5 hPa Calm   6.4 km/h 98 % 0.0 mm 37 W/m2
07:45 14.3 °C 14.0 °C 1017.8 hPa NNW 3.2 km/h 6.4 km/h 98 % 0.0 mm 42 W/m2
07:50 14.4 °C 14.1 °C 1017.8 hPa WNW 4.8 km/h 8.0 km/h 98 % 0.0 mm 44 W/m2
08:00 14.8 °C 14.7 °C 1017.8 hPa WNW 4.8 km/h 6.4 km/h 99 % 0.0 mm 209 W/m2
08:05 14.9 °C 14.6 °C 1017.8 hPa Calm   8.0 km/h 98 % 0.0 mm 227 W/m2
08:10 15.1 °C 14.9 °C 1017.8 hPa Calm   8.0 km/h 99 % 0.0 mm 128 W/m2
08:15 15.2 °C 14.9 °C 1017.8 hPa WNW 8.0 km/h 8.0 km/h 98 % 0.0 mm 153 W/m2
08:20 15.1 °C 14.8 °C 1018.2 hPa WNW 1.6 km/h 8.0 km/h 98 % 0.0 mm 128 W/m2
08:25 15.2 °C 14.9 °C 1018.2 hPa WSW 3.2 km/h 8.0 km/h 98 % 0.0 mm 139 W/m2
08:30 15.3 °C 15.0 °C 1018.2 hPa WSW 3.2 km/h 6.4 km/h 98 % 0.0 mm 167 W/m2
08:35 15.6 °C 15.3 °C 1018.2 hPa WSW 4.8 km/h 6.4 km/h 98 % 0.0 mm 311 W/m2
08:40 15.8 °C 15.5 °C 1018.2 hPa NW 4.8 km/h 8.0 km/h 98 % 0.0 mm 338 W/m2
08:45 16.0 °C 15.5 °C 1018.2 hPa SW 8.0 km/h 9.7 km/h 97 % 0.0 mm 376 W/m2
08:50 16.0 °C 15.5 °C 1018.5 hPa West 6.4 km/h 12.9 km/h 97 % 0.0 mm 415 W/m2
08:55 16.1 °C 15.3 °C 1018.5 hPa Calm   12.9 km/h 95 % 0.0 mm 214 W/m2
09:00 16.2 °C 15.4 °C 1018.5 hPa Calm   11.3 km/h 95 % 0.0 mm 338 W/m2
09:05 16.6 °C 15.8 °C 1018.5 hPa WNW 6.4 km/h 11.3 km/h 95 % 0.0 mm 225 W/m2
09:10 16.4 °C 15.3 °C 1018.5 hPa WNW 9.7 km/h 12.9 km/h 93 % 0.0 mm 278 W/m2
09:15 16.4 °C 15.3 °C 1018.5 hPa WNW 1.6 km/h 12.9 km/h 93 % 0.0 mm 311 W/m2
09:20 16.6 °C 15.5 °C 1018.8 hPa WNW 4.8 km/h 11.3 km/h 93 % 0.0 mm 190 W/m2
09:25 16.6 °C 15.4 °C 1018.8 hPa Calm   11.3 km/h 93 % 0.0 mm 320 W/m2
09:30 16.8 °C 15.6 °C 1018.8 hPa WSW 6.4 km/h 11.3 km/h 93 % 0.0 mm 188 W/m2
09:40 17.3 °C 16.0 °C 1018.8 hPa WSW 6.4 km/h 9.7 km/h 92 % 0.0 mm 652 W/m2
09:45 17.4 °C 15.8 °C 1018.8 hPa SW 4.8 km/h 16.1 km/h 90 % 0.0 mm 434 W/m2
09:50 17.4 °C 15.6 °C 1019.2 hPa WNW 6.4 km/h 16.1 km/h 89 % 0.0 mm 165 W/m2
09:55 17.6 °C 15.9 °C 1019.2 hPa WNW 8.0 km/h 12.9 km/h 90 % 0.0 mm 640 W/m2
10:00 17.7 °C 15.7 °C 1019.2 hPa West 4.8 km/h 14.5 km/h 88 % 0.0 mm 677 W/m2
10:05 17.7 °C 15.7 °C 1019.2 hPa WSW 6.4 km/h 14.5 km/h 88 % 0.0 mm 283 W/m2
10:10 17.5 °C 15.7 °C 1019.2 hPa West 9.7 km/h 14.5 km/h 89 % 0.0 mm 288 W/m2
10:15 17.3 °C 15.3 °C 1019.2 hPa SW 8.0 km/h 14.5 km/h 88 % 0.0 mm 297 W/m2
10:20 17.2 °C 15.4 °C 1019.2 hPa WSW 9.7 km/h 12.9 km/h 89 % 0.0 mm 221 W/m2
10:25 17.1 °C 15.2 °C 1019.2 hPa WSW 6.4 km/h 12.9 km/h 89 % 0.0 mm 267 W/m2
10:30 17.2 °C 15.4 °C 1019.2 hPa WSW 1.6 km/h 12.9 km/h 89 % 0.0 mm 364 W/m2
10:35 18.0 °C 15.8 °C 1019.2 hPa WSW 11.3 km/h 12.9 km/h 87 % 0.0 mm 352 W/m2
10:40 17.5 °C 15.5 °C 1019.2 hPa WNW 4.8 km/h 12.9 km/h 88 % 0.0 mm 330 W/m2
10:45 17.5 °C 15.7 °C 1019.2 hPa WSW 9.7 km/h 14.5 km/h 89 % 0.0 mm 452 W/m2
10:50 17.3 °C 15.1 °C 1019.2 hPa WSW 8.0 km/h 14.5 km/h 87 % 0.0 mm 352 W/m2
10:55 17.2 °C 15.3 °C 1019.2 hPa SW 8.0 km/h 14.5 km/h 89 % 0.0 mm 269 W/m2
11:00 17.1 °C 15.2 °C 1019.2 hPa West 3.2 km/h 12.9 km/h 89 % 0.0 mm 241 W/m2
11:05 17.1 °C 15.5 °C 1019.2 hPa WSW 4.8 km/h 12.9 km/h 90 % 0.0 mm 512 W/m2
11:10 17.7 °C 15.9 °C 1019.5 hPa WSW 12.9 km/h 14.5 km/h 89 % 0.0 mm 355 W/m2
11:15 17.8 °C 15.8 °C 1019.2 hPa SW 4.8 km/h 14.5 km/h 88 % 0.0 mm 315 W/m2
11:20 17.4 °C 15.3 °C 1019.2 hPa SSW 3.2 km/h 14.5 km/h 87 % 0.0 mm 264 W/m2
11:25 17.4 °C 15.4 °C 1019.2 hPa West 1.6 km/h 12.9 km/h 88 % 0.0 mm 267 W/m2
11:30 17.9 °C 15.7 °C 1019.2 hPa WNW 4.8 km/h 12.9 km/h 87 % 0.0 mm 438 W/m2
11:35 18.3 °C 16.1 °C 1019.2 hPa WSW 6.4 km/h 12.9 km/h 87 % 0.0 mm 512 W/m2
11:40 18.3 °C 15.9 °C 1019.2 hPa WSW 6.4 km/h 12.9 km/h 86 % 0.0 mm 366 W/m2
11:45 18.1 °C 15.5 °C 1019.5 hPa West 12.9 km/h 16.1 km/h 85 % 0.0 mm 316 W/m2
11:50 17.8 °C 15.8 °C 1019.5 hPa WSW 6.4 km/h 16.1 km/h 88 % 0.0 mm 265 W/m2
11:55 17.6 °C 15.4 °C 1019.5 hPa WNW 12.9 km/h 17.7 km/h 87 % 0.0 mm 357 W/m2
12:00 17.5 °C 15.3 °C 1019.5 hPa WSW 11.3 km/h 20.9 km/h 87 % 0.0 mm 373 W/m2
12:05 17.6 °C 15.4 °C 1019.5 hPa NW 3.2 km/h 20.9 km/h 87 % 0.0 mm 190 W/m2
12:10 17.2 °C 15.0 °C 1019.5 hPa West 6.4 km/h 14.5 km/h 87 % 0.0 mm 165 W/m2
12:15 17.1 °C 15.1 °C 1019.9 hPa West 3.2 km/h 14.5 km/h 88 % 0.0 mm 181 W/m2
12:20 17.2 °C 15.3 °C 1019.9 hPa WNW 6.4 km/h 12.9 km/h 89 % 0.0 mm 192 W/m2
12:25 17.2 °C 15.3 °C 1019.9 hPa Calm   12.9 km/h 89 % 0.0 mm 216 W/m2
12:30 17.3 °C 15.5 °C 1019.9 hPa WSW 4.8 km/h 14.5 km/h 89 % 0.0 mm 234 W/m2
12:35 17.5 °C 15.7 °C 1019.9 hPa West 8.0 km/h 14.5 km/h 89 % 0.0 mm 271 W/m2
12:40 17.6 °C 15.5 °C 1019.9 hPa West 6.4 km/h 16.1 km/h 88 % 0.0 mm 316 W/m2
12:45 17.6 °C 15.5 °C 1019.9 hPa West 4.8 km/h 17.7 km/h 88 % 0.0 mm 369 W/m2
12:50 17.8 °C 15.8 °C 1019.9 hPa West 9.7 km/h 17.7 km/h 88 % 0.0 mm 522 W/m2
12:55 18.2 °C 16.4 °C 1019.9 hPa NW 1.6 km/h 14.5 km/h 89 % 0.0 mm 420 W/m2
13:05 18.4 °C 16.0 °C 1019.9 hPa NNW 8.0 km/h 16.1 km/h 86 % 0.0 mm 399 W/m2
13:10 18.1 °C 15.7 °C 1019.9 hPa WSW 4.8 km/h 16.1 km/h 86 % 0.0 mm 413 W/m2
13:15 18.1 °C 16.0 °C 1019.9 hPa West 9.7 km/h 16.1 km/h 88 % 0.0 mm 471 W/m2
13:20 18.4 °C 16.2 °C 1019.9 hPa West 14.5 km/h 20.9 km/h 87 % 0.0 mm 510 W/m2
13:25 19.0 °C 16.4 °C 1019.9 hPa WSW 14.5 km/h 20.9 km/h 85 % 0.0 mm 510 W/m2
13:30 19.7 °C 16.9 °C 1019.9 hPa WNW 12.9 km/h 19.3 km/h 84 % 0.0 mm 1334 W/m2
13:35 19.9 °C 16.5 °C 1019.9 hPa WNW 12.9 km/h 19.3 km/h 81 % 0.0 mm 1387 W/m2
13:40 19.2 °C 16.3 °C 1019.9 hPa West 8.0 km/h 19.3 km/h 83 % 0.0 mm 786 W/m2
13:45 19.9 °C 17.0 °C 1019.9 hPa WSW 8.0 km/h 17.7 km/h 83 % 0.0 mm 733 W/m2
13:50 19.8 °C 16.5 °C 1019.9 hPa West 6.4 km/h 17.7 km/h 81 % 0.0 mm 844 W/m2
13:55 20.0 °C 16.2 °C 1019.9 hPa WNW 8.0 km/h 17.7 km/h 79 % 0.0 mm 670 W/m2
14:00 20.2 °C 16.7 °C 1019.9 hPa NNW 8.0 km/h 19.3 km/h 80 % 0.0 mm 1004 W/m2
14:10 20.0 °C 16.6 °C 1019.9 hPa NNW 3.2 km/h 12.9 km/h 81 % 0.0 mm 457 W/m2
14:15 19.6 °C 15.5 °C 1019.9 hPa WSW 1.6 km/h 9.7 km/h 77 % 0.0 mm 515 W/m2
14:20 20.8 °C 16.9 °C 1019.9 hPa North 9.7 km/h 12.9 km/h 78 % 0.0 mm 1206 W/m2
14:25 20.8 °C 16.4 °C 1019.9 hPa NW 8.0 km/h 14.5 km/h 76 % 0.0 mm 689 W/m2
14:30 20.3 °C 15.8 °C 1019.9 hPa WNW 6.4 km/h 14.5 km/h 75 % 0.0 mm 853 W/m2
14:35 20.4 °C 15.4 °C 1019.5 hPa WNW 4.8 km/h 9.7 km/h 73 % 0.0 mm 663 W/m2
14:40 20.6 °C 15.8 °C 1019.5 hPa NW 6.4 km/h 11.3 km/h 74 % 0.0 mm 759 W/m2
14:45 20.6 °C 15.2 °C 1019.5 hPa WSW 8.0 km/h 11.3 km/h 71 % 0.0 mm 712 W/m2
14:50 20.5 °C 14.8 °C 1019.5 hPa WNW 9.7 km/h 14.5 km/h 70 % 0.0 mm 939 W/m2
14:55 20.1 °C 14.4 °C 1019.5 hPa SW 6.4 km/h 14.5 km/h 70 % 0.0 mm 891 W/m2
15:00 20.4 °C 14.6 °C 1019.5 hPa West 8.0 km/h 14.5 km/h 69 % 0.0 mm 875 W/m2
15:05 20.2 °C 15.0 °C 1019.5 hPa NW 6.4 km/h 14.5 km/h 72 % 0.0 mm 782 W/m2
15:10 20.3 °C 15.3 °C 1019.5 hPa West 6.4 km/h 17.7 km/h 73 % 0.0 mm 768 W/m2
15:15 20.4 °C 15.0 °C 1019.5 hPa SW 9.7 km/h 17.7 km/h 71 % 0.0 mm 729 W/m2
15:20 20.3 °C 14.9 °C 1019.5 hPa SW 16.1 km/h 17.7 km/h 71 % 0.0 mm 733 W/m2
15:25 19.9 °C 15.0 °C 1019.5 hPa WSW 11.3 km/h 17.7 km/h 73 % 0.0 mm 747 W/m2
15:35 19.7 °C 14.7 °C 1019.5 hPa WSW 12.9 km/h 16.1 km/h 73 % 0.0 mm 821 W/m2
15:40 20.2 °C 15.0 °C 1019.5 hPa West 11.3 km/h 17.7 km/h 72 % 0.0 mm 863 W/m2
15:45 20.6 °C 15.4 °C 1019.5 hPa WSW 1.6 km/h 17.7 km/h 72 % 0.0 mm 854 W/m2
15:50 20.8 °C 14.9 °C 1019.5 hPa WNW 4.8 km/h 17.7 km/h 69 % 0.0 mm 842 W/m2
15:55 20.4 °C 14.8 °C 1019.9 hPa West 8.0 km/h 19.3 km/h 70 % 0.0 mm 830 W/m2
16:00 20.4 °C 15.0 °C 1019.9 hPa WNW 14.5 km/h 19.3 km/h 71 % 0.0 mm 823 W/m2
16:05 20.6 °C 16.0 °C 1019.9 hPa WNW 8.0 km/h 17.7 km/h 75 % 0.0 mm 837 W/m2
16:10 20.6 °C 14.9 °C 1019.9 hPa WSW 4.8 km/h 19.3 km/h 70 % 0.0 mm 793 W/m2
16:15 20.2 °C 15.0 °C 1019.9 hPa NW 9.7 km/h 19.3 km/h 72 % 0.0 mm 759 W/m2
16:20 20.2 °C 15.6 °C 1019.9 hPa NW 8.0 km/h 19.3 km/h 75 % 0.0 mm 752 W/m2
16:25 20.4 °C 15.0 °C 1019.9 hPa WSW 12.9 km/h 19.3 km/h 71 % 0.0 mm 796 W/m2
16:30 20.0 °C 15.4 °C 1019.9 hPa WNW 14.5 km/h 20.9 km/h 75 % 0.0 mm 805 W/m2
16:35 20.2 °C 15.4 °C 1019.9 hPa WSW 11.3 km/h 20.9 km/h 74 % 0.0 mm 830 W/m2
16:40 20.2 °C 15.6 °C 1019.9 hPa SW 14.5 km/h 20.9 km/h 75 % 0.0 mm 833 W/m2
16:45 20.6 °C 16.0 °C 1019.9 hPa WSW 9.7 km/h 22.5 km/h 75 % 0.0 mm 893 W/m2
16:50 20.3 °C 15.3 °C 1019.5 hPa WNW 11.3 km/h 22.5 km/h 73 % 0.0 mm 896 W/m2
16:55 20.3 °C 15.7 °C 1019.5 hPa West 12.9 km/h 22.5 km/h 75 % 0.0 mm 958 W/m2
17:00 20.4 °C 15.8 °C 1019.5 hPa WSW 8.0 km/h 20.9 km/h 75 % 0.0 mm 942 W/m2
17:05 20.5 °C 15.5 °C 1019.5 hPa WSW 20.9 km/h 20.9 km/h 73 % 0.0 mm 895 W/m2
17:10 20.1 °C 15.1 °C 1019.5 hPa West 16.1 km/h 24.1 km/h 73 % 0.0 mm 519 W/m2
17:15 19.9 °C 15.6 °C 1019.9 hPa SW 8.0 km/h 24.1 km/h 76 % 0.0 mm 392 W/m2
17:20 19.3 °C 14.8 °C 1019.9 hPa West 8.0 km/h 24.1 km/h 75 % 0.0 mm 276 W/m2
17:25 18.7 °C 15.0 °C 1019.9 hPa WSW 6.4 km/h 24.1 km/h 79 % 0.0 mm 306 W/m2
17:30 18.6 °C 15.0 °C 1019.9 hPa WNW 6.4 km/h 20.9 km/h 80 % 0.0 mm 374 W/m2
17:35 18.9 °C 15.4 °C 1019.9 hPa WSW 4.8 km/h 20.9 km/h 80 % 0.0 mm 288 W/m2
17:40 18.8 °C 15.3 °C 1019.9 hPa WSW 19.3 km/h 19.3 km/h 80 % 0.0 mm 244 W/m2
17:45 18.6 °C 15.2 °C 1019.9 hPa WNW 12.9 km/h 19.3 km/h 81 % 0.0 mm 204 W/m2
17:50 18.3 °C 15.2 °C 1019.9 hPa WNW 11.3 km/h 19.3 km/h 82 % 0.0 mm 246 W/m2
17:55 18.6 °C 15.4 °C 1019.9 hPa WSW 12.9 km/h 19.3 km/h 82 % 0.0 mm 591 W/m2
18:00 19.2 °C 15.8 °C 1019.9 hPa WNW 4.8 km/h 25.7 km/h 81 % 0.0 mm 564 W/m2
18:05 20.0 °C 16.0 °C 1019.9 hPa WNW 3.2 km/h 25.7 km/h 78 % 0.0 mm 552 W/m2
18:10 19.8 °C 15.6 °C 1019.9 hPa WSW 8.0 km/h 17.7 km/h 77 % 0.0 mm 538 W/m2
18:15 19.8 °C 15.5 °C 1019.9 hPa WSW 8.0 km/h 22.5 km/h 76 % 0.0 mm 531 W/m2
18:20 19.7 °C 14.9 °C 1019.9 hPa WNW 4.8 km/h 24.1 km/h 74 % 0.0 mm 529 W/m2
18:25 19.7 °C 15.2 °C 1019.9 hPa West 6.4 km/h 24.1 km/h 75 % 0.0 mm 510 W/m2
18:30 19.6 °C 15.2 °C 1019.9 hPa WSW 8.0 km/h 17.7 km/h 76 % 0.0 mm 515 W/m2
18:35 20.0 °C 15.4 °C 1019.9 hPa NNW 11.3 km/h 17.7 km/h 75 % 0.0 mm 524 W/m2
18:40 19.8 °C 15.2 °C 1019.9 hPa WSW 1.6 km/h 16.1 km/h 75 % 0.0 mm 534 W/m2
18:45 19.7 °C 15.2 °C 1019.9 hPa West 12.9 km/h 17.7 km/h 75 % 0.0 mm 255 W/m2
18:50 19.5 °C 15.2 °C 1019.9 hPa West 6.4 km/h 17.7 km/h 76 % 0.0 mm 436 W/m2
18:55 19.4 °C 15.3 °C 1019.9 hPa NW 8.0 km/h 17.7 km/h 77 % 0.0 mm 185 W/m2
19:00 18.9 °C 15.0 °C 1020.2 hPa WNW 11.3 km/h 19.3 km/h 78 % 0.0 mm 174 W/m2
19:05 18.7 °C 14.9 °C 1020.2 hPa West 14.5 km/h 19.3 km/h 79 % 0.0 mm 206 W/m2
19:10 18.6 °C 15.2 °C 1020.2 hPa WNW 8.0 km/h 24.1 km/h 81 % 0.0 mm 171 W/m2
19:15 18.4 °C 15.5 °C 1020.2 hPa WNW 4.8 km/h 24.1 km/h 83 % 0.0 mm 218 W/m2
19:20 18.4 °C 15.1 °C 1020.2 hPa NW 8.0 km/h 16.1 km/h 81 % 0.0 mm 132 W/m2
19:25 18.2 °C 15.2 °C 1020.2 hPa West 12.9 km/h 20.9 km/h 83 % 0.0 mm 104 W/m2
19:30 18.1 °C 15.4 °C 1020.2 hPa WNW 6.4 km/h 20.9 km/h 84 % 0.0 mm 264 W/m2
19:35 18.4 °C 15.5 °C 1020.2 hPa WNW 9.7 km/h 17.7 km/h 83 % 0.0 mm 290 W/m2
19:40 18.6 °C 15.4 °C 1020.2 hPa West 9.7 km/h 17.7 km/h 82 % 0.0 mm 230 W/m2
19:45 18.8 °C 15.6 °C 1020.2 hPa West 6.4 km/h 17.7 km/h 82 % 0.0 mm 241 W/m2
19:50 18.9 °C 15.6 °C 1020.2 hPa West 9.7 km/h 19.3 km/h 81 % 0.0 mm 214 W/m2
19:55 18.9 °C 15.6 °C 1020.2 hPa NW 9.7 km/h 19.3 km/h 81 % 0.0 mm 197 W/m2
20:00 18.8 °C 15.6 °C 1020.2 hPa WNW 9.7 km/h 14.5 km/h 82 % 0.0 mm 176 W/m2
20:05 18.8 °C 15.5 °C 1020.2 hPa NW 11.3 km/h 12.9 km/h 81 % 0.0 mm 171 W/m2
20:15 18.8 °C 15.3 °C 1020.2 hPa WNW 6.4 km/h 19.3 km/h 80 % 0.0 mm 151 W/m2
20:20 18.6 °C 14.9 °C 1020.2 hPa WNW 4.8 km/h 19.3 km/h 79 % 0.0 mm 128 W/m2
20:25 18.4 °C 15.1 °C 1020.2 hPa NNW 8.0 km/h 11.3 km/h 81 % 0.0 mm 113 W/m2
20:30 18.3 °C 14.8 °C 1020.2 hPa Calm   11.3 km/h 80 % 0.0 mm 97 W/m2
20:35 18.1 °C 14.9 °C 1020.2 hPa NNW 9.7 km/h 11.3 km/h 82 % 0.0 mm 81 W/m2
20:40 17.7 °C 14.6 °C 1020.2 hPa NW 1.6 km/h 12.9 km/h 82 % 0.0 mm 32 W/m2
20:45 17.5 °C 14.4 °C 1020.2 hPa NW 6.4 km/h 12.9 km/h 82 % 0.0 mm 28 W/m2
20:50 17.4 °C 14.5 °C 1020.5 hPa WNW 3.2 km/h 11.3 km/h 83 % 0.0 mm 28 W/m2
20:55 17.3 °C 14.6 °C 1020.5 hPa WNW 8.0 km/h 12.9 km/h 84 % 0.0 mm 26 W/m2
21:00 17.3 °C 14.5 °C 1020.5 hPa NW 4.8 km/h 12.9 km/h 84 % 0.0 mm 23 W/m2
21:05 17.2 °C 14.4 °C 1020.5 hPa WNW 3.2 km/h 9.7 km/h 84 % 0.0 mm 21 W/m2
21:10 17.0 °C 14.3 °C 1020.5 hPa NW 1.6 km/h 9.7 km/h 84 % 0.0 mm 19 W/m2
21:15 16.7 °C 14.2 °C 1020.5 hPa NW 1.6 km/h 9.7 km/h 85 % 0.0 mm 18 W/m2
21:20 16.6 °C 14.2 °C 1020.5 hPa WNW 4.8 km/h 11.3 km/h 86 % 0.0 mm 16 W/m2
21:25 16.5 °C 14.1 °C 1020.5 hPa WNW 1.6 km/h 11.3 km/h 86 % 0.0 mm 14 W/m2
21:30 16.3 °C 14.0 °C 1020.5 hPa WNW 1.6 km/h 9.7 km/h 86 % 0.0 mm 12 W/m2
21:35 16.1 °C 13.9 °C 1020.9 hPa WNW 3.2 km/h 9.7 km/h 87 % 0.0 mm 11 W/m2
21:40 15.9 °C 13.8 °C 1020.5 hPa NW 3.2 km/h 9.7 km/h 87 % 0.0 mm 9 W/m2
21:45 15.7 °C 13.7 °C 1020.5 hPa WNW 3.2 km/h 8.0 km/h 88 % 0.0 mm 7 W/m2
21:50 15.6 °C 13.6 °C 1020.5 hPa Calm   6.4 km/h 88 % 0.0 mm 5 W/m2
21:55 15.4 °C 13.5 °C 1020.9 hPa WNW 1.6 km/h 8.0 km/h 88 % 0.0 mm 0 W/m2
22:00 15.3 °C 13.5 °C 1020.9 hPa WNW 4.8 km/h 8.0 km/h 89 % 0.0 mm 0 W/m2
22:05 15.0 °C 13.4 °C 1020.9 hPa Calm   6.4 km/h 90 % 0.0 mm 0 W/m2
22:10 14.9 °C 13.3 °C 1020.9 hPa WNW 4.8 km/h 6.4 km/h 90 % 0.0 mm 0 W/m2
22:15 14.7 °C 13.1 °C 1020.9 hPa Calm   6.4 km/h 90 % 0.0 mm 0 W/m2
22:20 14.6 °C 13.2 °C 1021.2 hPa WNW 4.8 km/h 6.4 km/h 91 % 0.0 mm 0 W/m2
22:25 14.4 °C 13.0 °C 1021.2 hPa WNW 3.2 km/h 6.4 km/h 91 % 0.0 mm 0 W/m2
22:30 14.3 °C 13.0 °C 1021.2 hPa Calm   6.4 km/h 92 % 0.0 mm 0 W/m2
22:35 14.2 °C 12.9 °C 1021.2 hPa WNW 3.2 km/h 6.4 km/h 92 % 0.0 mm 0 W/m2
22:40 13.9 °C 12.7 °C 1021.6 hPa WNW 1.6 km/h 6.4 km/h 92 % 0.0 mm 0 W/m2
22:45 13.8 °C 12.7 °C 1021.6 hPa Calm   6.4 km/h 93 % 0.0 mm 0 W/m2
22:50 13.7 °C 12.6 °C 1021.6 hPa WNW 1.6 km/h 4.8 km/h 93 % 0.0 mm 0 W/m2
22:55 13.6 °C 12.5 °C 1021.6 hPa WNW 3.2 km/h 4.8 km/h 93 % 0.0 mm 0 W/m2
23:00 13.6 °C 12.6 °C 1021.6 hPa WNW 3.2 km/h 6.4 km/h 94 % 0.0 mm 0 W/m2
23:05 13.4 °C 12.5 °C 1021.6 hPa Calm   6.4 km/h 94 % 0.0 mm 0 W/m2
23:10 13.4 °C 12.5 °C 1021.6 hPa Calm   8.0 km/h 94 % 0.0 mm 0 W/m2
23:15 13.4 °C 12.5 °C 1021.6 hPa NW 4.8 km/h 8.0 km/h 94 % 0.0 mm 0 W/m2
23:20 13.6 °C 12.8 °C 1021.6 hPa Calm   8.0 km/h 95 % 0.0 mm 0 W/m2
23:25 13.7 °C 12.9 °C 1021.6 hPa NW 3.2 km/h 6.4 km/h 95 % 0.0 mm 0 W/m2
23:30 13.7 °C 12.9 °C 1021.6 hPa NNW 3.2 km/h 9.7 km/h 95 % 0.0 mm 0 W/m2
23:35 13.8 °C 13.0 °C 1021.6 hPa Calm   9.7 km/h 95 % 0.0 mm 0 W/m2
23:40 13.9 °C 13.2 °C 1021.6 hPa Calm   6.4 km/h 95 % 0.0 mm 0 W/m2
23:45 13.9 °C 13.3 °C 1021.6 hPa Calm   6.4 km/h 96 % 0.0 mm 0 W/m2
23:50 14.2 °C 13.5 °C 1021.6 hPa WNW 1.6 km/h 4.8 km/h 96 % 0.0 mm 0 W/m2
23:55 14.2 °C 13.5 °C 1021.6 hPa WNW 3.2 km/h 8.0 km/h 96 % 0.0 mm 0 W/m2
Avec l'autorisation de Weather Underground - 1.75 mb